Terminal Aerodrome Forecast
Issued by NWS Brownsville, TX

Home | Current Version | Previous Version | Text Only | Print | Product List | Glossary On
Versions: 1 2 3 4 5 6 7 8 9 10 11 12 13 14 15 16
933
FTUS44 KBRO 241816 AAA
TAFMFE
TAF AMD
KMFE 241816Z 2418/2518 01018G28KT P6SM SKC
     FM242300 01010KT P6SM SKC
     FM250200 03008KT P6SM SKC
     FM251500 05010KT P6SM SKC=

USA.gov is the U.S. government's official web portal to all federal, state and local government web resources and services.